sensor_id;sensor_type;location;lat;lon;timestamp;P1;durP1;ratioP1;P2;durP2;ratioP2
73684;SDS011;61985;51.070;14.064;2023-06-26T00:00:23;10.13;;;5.70;;
73684;SDS011;61985;51.070;14.064;2023-06-26T00:02:49;8.85;;;5.55;;
73684;SDS011;61985;51.070;14.064;2023-06-26T00:05:14;10.35;;;6.22;;
73684;SDS011;61985;51.070;14.064;2023-06-26T00:07:39;11.35;;;6.32;;
73684;SDS011;61985;51.070;14.064;2023-06-26T00:10:05;8.60;;;5.70;;
73684;SDS011;61985;51.070;14.064;2023-06-26T00:12:31;9.32;;;5.72;;
73684;SDS011;61985;51.070;14.064;2023-06-26T00:14:57;10.85;;;6.28;;
73684;SDS011;61985;51.070;14.064;2023-06-26T00:17:23;9.07;;;5.80;;
73684;SDS011;61985;51.070;14.064;2023-06-26T00:19:48;12.35;;;6.13;;
73684;SDS011;61985;51.070;14.064;2023-06-26T00:22:14;9.30;;;6.00;;
73684;SDS011;61985;51.070;14.064;2023-06-26T00:24:40;11.43;;;6.00;;
73684;SDS011;61985;51.070;14.064;2023-06-26T00:27:05;12.65;;;6.10;;
73684;SDS011;61985;51.070;14.064;2023-06-26T00:29:31;11.35;;;6.40;;
73684;SDS011;61985;51.070;14.064;2023-06-26T00:31:56;12.63;;;6.20;;
73684;SDS011;61985;51.070;14.064;2023-06-26T00:34:21;10.80;;;6.22;;
73684;SDS011;61985;51.070;14.064;2023-06-26T00:36:47;12.57;;;6.78;;
73684;SDS011;61985;51.070;14.064;2023-06-26T00:39:12;12.50;;;5.97;;
73684;SDS011;61985;51.070;14.064;2023-06-26T00:41:38;9.45;;;5.97;;
73684;SDS011;61985;51.070;14.064;2023-06-26T00:44:04;8.75;;;5.10;;
73684;SDS011;61985;51.070;14.064;2023-06-26T00:46:33;8.65;;;5.32;;
73684;SDS011;61985;51.070;14.064;2023-06-26T00:49:00;9.70;;;5.75;;
73684;SDS011;61985;51.070;14.064;2023-06-26T00:51:27;11.68;;;6.13;;
73684;SDS011;61985;51.070;14.064;2023-06-26T00:53:53;11.43;;;5.78;;
73684;SDS011;61985;51.070;14.064;2023-06-26T00:56:19;11.05;;;5.65;;
73684;SDS011;61985;51.070;14.064;2023-06-26T00:58:45;8.10;;;4.90;;
73684;SDS011;61985;51.070;14.064;2023-06-26T01:01:11;10.13;;;5.95;;
73684;SDS011;61985;51.070;14.064;2023-06-26T01:03:40;10.88;;;5.88;;
73684;SDS011;61985;51.070;14.064;2023-06-26T01:06:07;10.05;;;5.40;;
73684;SDS011;61985;51.070;14.064;2023-06-26T01:08:36;9.10;;;5.68;;
73684;SDS011;61985;51.070;14.064;2023-06-26T01:11:02;13.07;;;6.10;;
73684;SDS011;61985;51.070;14.064;2023-06-26T01:13:28;8.65;;;5.57;;
73684;SDS011;61985;51.070;14.064;2023-06-26T01:15:54;14.70;;;5.85;;
73684;SDS011;61985;51.070;14.064;2023-06-26T01:18:20;10.75;;;5.22;;
73684;SDS011;61985;51.070;14.064;2023-06-26T01:20:46;17.08;;;5.72;;
73684;SDS011;61985;51.070;14.064;2023-06-26T01:28:40;18.98;;;5.60;;
73684;SDS011;61985;51.070;14.064;2023-06-26T01:31:07;14.50;;;5.10;;
73684;SDS011;61985;51.070;14.064;2023-06-26T01:33:33;15.95;;;4.95;;
73684;SDS011;61985;51.070;14.064;2023-06-26T01:35:59;10.10;;;5.22;;
73684;SDS011;61985;51.070;14.064;2023-06-26T01:38:25;16.23;;;5.50;;
73684;SDS011;61985;51.070;14.064;2023-06-26T01:40:51;11.82;;;5.43;;
73684;SDS011;61985;51.070;14.064;2023-06-26T01:46:13;12.32;;;5.45;;
73684;SDS011;61985;51.070;14.064;2023-06-26T01:48:46;12.77;;;4.85;;
73684;SDS011;61985;51.070;14.064;2023-06-26T01:51:15;8.48;;;5.45;;
73684;SDS011;61985;51.070;14.064;2023-06-26T01:53:44;12.10;;;5.75;;
73684;SDS011;61985;51.070;14.064;2023-06-26T01:56:13;11.13;;;5.65;;
73684;SDS011;61985;51.070;14.064;2023-06-26T01:58:41;12.98;;;5.55;;
73684;SDS011;61985;51.070;14.064;2023-06-26T02:01:10;10.77;;;5.20;;
73684;SDS011;61985;51.070;14.064;2023-06-26T02:03:35;12.48;;;5.22;;
73684;SDS011;61985;51.070;14.064;2023-06-26T02:06:01;12.00;;;5.38;;
73684;SDS011;61985;51.070;14.064;2023-06-26T02:08:26;11.27;;;5.20;;
73684;SDS011;61985;51.070;14.064;2023-06-26T02:10:51;14.82;;;5.55;;
73684;SDS011;61985;51.070;14.064;2023-06-26T02:13:17;13.25;;;5.38;;
73684;SDS011;61985;51.070;14.064;2023-06-26T02:15:42;11.38;;;5.25;;
73684;SDS011;61985;51.070;14.064;2023-06-26T02:18:08;18.40;;;5.68;;
73684;SDS011;61985;51.070;14.064;2023-06-26T02:20:33;16.75;;;5.97;;
73684;SDS011;61985;51.070;14.064;2023-06-26T02:22:58;8.50;;;5.28;;
73684;SDS011;61985;51.070;14.064;2023-06-26T02:25:24;13.25;;;5.25;;
73684;SDS011;61985;51.070;14.064;2023-06-26T02:27:49;12.13;;;5.63;;
73684;SDS011;61985;51.070;14.064;2023-06-26T02:30:14;8.00;;;5.40;;
73684;SDS011;61985;51.070;14.064;2023-06-26T02:32:40;13.93;;;6.03;;
73684;SDS011;61985;51.070;14.064;2023-06-26T02:35:05;10.35;;;5.28;;
73684;SDS011;61985;51.070;14.064;2023-06-26T02:37:31;13.57;;;5.53;;
73684;SDS011;61985;51.070;14.064;2023-06-26T02:39:56;13.48;;;5.63;;
73684;SDS011;61985;51.070;14.064;2023-06-26T02:42:22;10.02;;;5.50;;
73684;SDS011;61985;51.070;14.064;2023-06-26T02:44:47;9.73;;;5.63;;
73684;SDS011;61985;51.070;14.064;2023-06-26T02:47:12;11.93;;;5.88;;
73684;SDS011;61985;51.070;14.064;2023-06-26T02:49:38;10.27;;;5.90;;
73684;SDS011;61985;51.070;14.064;2023-06-26T02:52:03;10.65;;;5.55;;
73684;SDS011;61985;51.070;14.064;2023-06-26T02:54:29;9.65;;;5.57;;
73684;SDS011;61985;51.070;14.064;2023-06-26T02:56:54;9.07;;;5.15;;
73684;SDS011;61985;51.070;14.064;2023-06-26T02:59:19;12.48;;;6.00;;
73684;SDS011;61985;51.070;14.064;2023-06-26T03:01:45;15.00;;;5.95;;
73684;SDS011;61985;51.070;14.064;2023-06-26T03:04:10;12.38;;;5.63;;
73684;SDS011;61985;51.070;14.064;2023-06-26T03:06:36;11.10;;;5.63;;
73684;SDS011;61985;51.070;14.064;2023-06-26T03:09:01;12.02;;;5.75;;
73684;SDS011;61985;51.070;14.064;2023-06-26T03:11:27;9.38;;;5.43;;
73684;SDS011;61985;51.070;14.064;2023-06-26T03:13:52;11.13;;;5.05;;
73684;SDS011;61985;51.070;14.064;2023-06-26T03:16:18;12.45;;;5.68;;
73684;SDS011;61985;51.070;14.064;2023-06-26T03:18:43;13.75;;;5.80;;
73684;SDS011;61985;51.070;14.064;2023-06-26T03:21:08;8.65;;;5.03;;
73684;SDS011;61985;51.070;14.064;2023-06-26T03:23:34;10.60;;;5.20;;
73684;SDS011;61985;51.070;14.064;2023-06-26T03:26:00;13.25;;;5.72;;
73684;SDS011;61985;51.070;14.064;2023-06-26T03:28:25;12.85;;;6.10;;
73684;SDS011;61985;51.070;14.064;2023-06-26T03:30:50;12.40;;;6.93;;
73684;SDS011;61985;51.070;14.064;2023-06-26T03:33:16;10.90;;;5.85;;
73684;SDS011;61985;51.070;14.064;2023-06-26T03:35:41;9.15;;;5.68;;
73684;SDS011;61985;51.070;14.064;2023-06-26T03:38:06;11.57;;;5.80;;
73684;SDS011;61985;51.070;14.064;2023-06-26T03:40:32;11.75;;;5.68;;
73684;SDS011;61985;51.070;14.064;2023-06-26T03:42:57;14.05;;;5.88;;
73684;SDS011;61985;51.070;14.064;2023-06-26T03:45:22;12.27;;;5.90;;
73684;SDS011;61985;51.070;14.064;2023-06-26T03:47:48;11.50;;;5.35;;
73684;SDS011;61985;51.070;14.064;2023-06-26T03:50:17;9.55;;;5.28;;
73684;SDS011;61985;51.070;14.064;2023-06-26T03:52:43;8.65;;;5.65;;
73684;SDS011;61985;51.070;14.064;2023-06-26T03:55:08;11.13;;;5.82;;
73684;SDS011;61985;51.070;14.064;2023-06-26T03:57:34;10.00;;;5.93;;
73684;SDS011;61985;51.070;14.064;2023-06-26T03:59:59;10.10;;;5.50;;
73684;SDS011;61985;51.070;14.064;2023-06-26T04:02:25;11.40;;;5.70;;
73684;SDS011;61985;51.070;14.064;2023-06-26T04:04:50;10.20;;;5.80;;
73684;SDS011;61985;51.070;14.064;2023-06-26T04:07:17;9.32;;;5.25;;
73684;SDS011;61985;51.070;14.064;2023-06-26T04:09:42;9.48;;;5.60;;
73684;SDS011;61985;51.070;14.064;2023-06-26T04:12:08;10.05;;;5.18;;
73684;SDS011;61985;51.070;14.064;2023-06-26T04:14:33;9.63;;;5.70;;
73684;SDS011;61985;51.070;14.064;2023-06-26T04:16:59;10.82;;;5.72;;
73684;SDS011;61985;51.070;14.064;2023-06-26T04:19:26;8.35;;;5.68;;
73684;SDS011;61985;51.070;14.064;2023-06-26T04:21:52;11.35;;;5.53;;
73684;SDS011;61985;51.070;14.064;2023-06-26T04:24:17;8.90;;;5.57;;
73684;SDS011;61985;51.070;14.064;2023-06-26T04:26:42;9.38;;;5.90;;
73684;SDS011;61985;51.070;14.064;2023-06-26T04:29:08;11.38;;;6.03;;
73684;SDS011;61985;51.070;14.064;2023-06-26T04:31:33;8.93;;;5.50;;
73684;SDS011;61985;51.070;14.064;2023-06-26T04:33:59;11.55;;;5.80;;
73684;SDS011;61985;51.070;14.064;2023-06-26T04:36:24;11.80;;;6.28;;
73684;SDS011;61985;51.070;14.064;2023-06-26T04:38:53;8.23;;;5.50;;
73684;SDS011;61985;51.070;14.064;2023-06-26T04:41:19;10.02;;;5.80;;
73684;SDS011;61985;51.070;14.064;2023-06-26T04:43:45;11.45;;;6.05;;
73684;SDS011;61985;51.070;14.064;2023-06-26T04:46:10;14.18;;;6.53;;
73684;SDS011;61985;51.070;14.064;2023-06-26T04:48:35;15.80;;;6.25;;
73684;SDS011;61985;51.070;14.064;2023-06-26T04:51:00;9.80;;;6.18;;
73684;SDS011;61985;51.070;14.064;2023-06-26T04:53:26;13.60;;;6.53;;
73684;SDS011;61985;51.070;14.064;2023-06-26T04:55:51;12.82;;;6.18;;
73684;SDS011;61985;51.070;14.064;2023-06-26T04:58:18;9.95;;;5.75;;
73684;SDS011;61985;51.070;14.064;2023-06-26T05:00:43;10.00;;;5.45;;
73684;SDS011;61985;51.070;14.064;2023-06-26T05:03:09;12.13;;;5.25;;
73684;SDS011;61985;51.070;14.064;2023-06-26T05:05:36;10.00;;;5.30;;
73684;SDS011;61985;51.070;14.064;2023-06-26T05:08:13;12.32;;;5.57;;
73684;SDS011;61985;51.070;14.064;2023-06-26T05:10:41;11.77;;;5.85;;
73684;SDS011;61985;51.070;14.064;2023-06-26T05:13:07;11.80;;;5.78;;
73684;SDS011;61985;51.070;14.064;2023-06-26T05:15:32;8.45;;;5.18;;
73684;SDS011;61985;51.070;14.064;2023-06-26T05:17:57;7.25;;;4.82;;
73684;SDS011;61985;51.070;14.064;2023-06-26T05:20:23;8.77;;;4.97;;
73684;SDS011;61985;51.070;14.064;2023-06-26T05:22:48;8.18;;;5.00;;
73684;SDS011;61985;51.070;14.064;2023-06-26T05:25:14;8.50;;;4.70;;
73684;SDS011;61985;51.070;14.064;2023-06-26T05:27:40;9.63;;;5.13;;
73684;SDS011;61985;51.070;14.064;2023-06-26T05:30:06;7.32;;;4.97;;
73684;SDS011;61985;51.070;14.064;2023-06-26T05:32:33;8.73;;;5.15;;
73684;SDS011;61985;51.070;14.064;2023-06-26T05:34:59;8.68;;;4.90;;
73684;SDS011;61985;51.070;14.064;2023-06-26T05:37:28;7.22;;;4.72;;
73684;SDS011;61985;51.070;14.064;2023-06-26T05:39:54;9.07;;;4.88;;
73684;SDS011;61985;51.070;14.064;2023-06-26T05:42:19;7.95;;;4.80;;
73684;SDS011;61985;51.070;14.064;2023-06-26T05:44:45;8.93;;;4.85;;
73684;SDS011;61985;51.070;14.064;2023-06-26T05:47:10;8.65;;;5.35;;
73684;SDS011;61985;51.070;14.064;2023-06-26T05:49:35;10.27;;;4.78;;
73684;SDS011;61985;51.070;14.064;2023-06-26T05:52:01;10.07;;;5.03;;
73684;SDS011;61985;51.070;14.064;2023-06-26T05:54:26;6.35;;;4.18;;
73684;SDS011;61985;51.070;14.064;2023-06-26T05:56:53;8.10;;;4.75;;
73684;SDS011;61985;51.070;14.064;2023-06-26T05:59:27;8.25;;;4.43;;
73684;SDS011;61985;51.070;14.064;2023-06-26T06:01:52;7.75;;;4.50;;
73684;SDS011;61985;51.070;14.064;2023-06-26T06:04:18;7.63;;;4.47;;
73684;SDS011;61985;51.070;14.064;2023-06-26T06:06:43;7.90;;;4.75;;
73684;SDS011;61985;51.070;14.064;2023-06-26T06:09:09;8.38;;;4.45;;
73684;SDS011;61985;51.070;14.064;2023-06-26T06:11:34;6.53;;;4.30;;
73684;SDS011;61985;51.070;14.064;2023-06-26T06:14:00;12.23;;;4.88;;
73684;SDS011;61985;51.070;14.064;2023-06-26T06:16:26;8.55;;;5.03;;
73684;SDS011;61985;51.070;14.064;2023-06-26T06:18:54;6.72;;;4.10;;
73684;SDS011;61985;51.070;14.064;2023-06-26T06:21:19;13.35;;;4.78;;
73684;SDS011;61985;51.070;14.064;2023-06-26T06:23:44;7.97;;;4.57;;
73684;SDS011;61985;51.070;14.064;2023-06-26T06:26:10;8.15;;;4.43;;
73684;SDS011;61985;51.070;14.064;2023-06-26T06:28:36;7.80;;;4.63;;
73684;SDS011;61985;51.070;14.064;2023-06-26T06:31:01;6.47;;;4.30;;
73684;SDS011;61985;51.070;14.064;2023-06-26T06:33:26;6.45;;;4.15;;
73684;SDS011;61985;51.070;14.064;2023-06-26T06:35:52;6.32;;;4.22;;
73684;SDS011;61985;51.070;14.064;2023-06-26T06:38:17;7.50;;;4.63;;
73684;SDS011;61985;51.070;14.064;2023-06-26T06:40:42;7.85;;;4.75;;
73684;SDS011;61985;51.070;14.064;2023-06-26T06:43:08;6.68;;;4.63;;
73684;SDS011;61985;51.070;14.064;2023-06-26T06:45:33;6.50;;;4.30;;
73684;SDS011;61985;51.070;14.064;2023-06-26T06:47:58;6.53;;;4.72;;
73684;SDS011;61985;51.070;14.064;2023-06-26T06:50:24;8.32;;;4.60;;
73684;SDS011;61985;51.070;14.064;2023-06-26T06:52:49;7.70;;;4.45;;
73684;SDS011;61985;51.070;14.064;2023-06-26T06:55:14;9.15;;;4.68;;
73684;SDS011;61985;51.070;14.064;2023-06-26T06:57:40;9.40;;;4.80;;
73684;SDS011;61985;51.070;14.064;2023-06-26T07:00:09;6.70;;;4.93;;
73684;SDS011;61985;51.070;14.064;2023-06-26T07:02:36;7.32;;;4.82;;
73684;SDS011;61985;51.070;14.064;2023-06-26T07:05:02;7.25;;;4.80;;
73684;SDS011;61985;51.070;14.064;2023-06-26T07:07:29;8.23;;;4.53;;
73684;SDS011;61985;51.070;14.064;2023-06-26T07:09:57;7.47;;;5.00;;
73684;SDS011;61985;51.070;14.064;2023-06-26T07:12:23;10.13;;;5.13;;
73684;SDS011;61985;51.070;14.064;2023-06-26T07:14:49;8.88;;;4.72;;
73684;SDS011;61985;51.070;14.064;2023-06-26T07:17:14;7.50;;;5.05;;
73684;SDS011;61985;51.070;14.064;2023-06-26T07:19:39;7.18;;;4.35;;
73684;SDS011;61985;51.070;14.064;2023-06-26T07:22:05;7.40;;;4.78;;
73684;SDS011;61985;51.070;14.064;2023-06-26T07:24:30;8.00;;;4.53;;
73684;SDS011;61985;51.070;14.064;2023-06-26T07:26:57;9.95;;;5.05;;
73684;SDS011;61985;51.070;14.064;2023-06-26T07:29:22;9.02;;;4.85;;
73684;SDS011;61985;51.070;14.064;2023-06-26T07:31:47;7.20;;;4.18;;
73684;SDS011;61985;51.070;14.064;2023-06-26T07:34:13;7.90;;;4.55;;
73684;SDS011;61985;51.070;14.064;2023-06-26T07:36:38;7.95;;;4.32;;
73684;SDS011;61985;51.070;14.064;2023-06-26T07:39:04;7.00;;;4.60;;
73684;SDS011;61985;51.070;14.064;2023-06-26T07:41:29;7.82;;;4.65;;
73684;SDS011;61985;51.070;14.064;2023-06-26T07:43:56;7.05;;;4.65;;
73684;SDS011;61985;51.070;14.064;2023-06-26T07:46:25;6.78;;;4.10;;
73684;SDS011;61985;51.070;14.064;2023-06-26T07:48:53;7.80;;;4.72;;
73684;SDS011;61985;51.070;14.064;2023-06-26T07:51:19;6.95;;;4.53;;
73684;SDS011;61985;51.070;14.064;2023-06-26T07:53:45;10.38;;;4.63;;
73684;SDS011;61985;51.070;14.064;2023-06-26T07:56:10;6.40;;;4.20;;
73684;SDS011;61985;51.070;14.064;2023-06-26T07:58:35;9.93;;;4.68;;
73684;SDS011;61985;51.070;14.064;2023-06-26T08:01:01;8.25;;;4.50;;
73684;SDS011;61985;51.070;14.064;2023-06-26T08:03:26;8.57;;;4.80;;
73684;SDS011;61985;51.070;14.064;2023-06-26T08:05:52;9.30;;;4.70;;
73684;SDS011;61985;51.070;14.064;2023-06-26T08:08:17;6.82;;;4.35;;
73684;SDS011;61985;51.070;14.064;2023-06-26T08:10:43;10.55;;;4.93;;
73684;SDS011;61985;51.070;14.064;2023-06-26T08:13:09;7.10;;;4.57;;
73684;SDS011;61985;51.070;14.064;2023-06-26T08:15:34;8.93;;;4.85;;
73684;SDS011;61985;51.070;14.064;2023-06-26T08:18:00;7.68;;;4.70;;
73684;SDS011;61985;51.070;14.064;2023-06-26T08:20:25;8.00;;;4.70;;
73684;SDS011;61985;51.070;14.064;2023-06-26T08:22:51;5.95;;;4.38;;
73684;SDS011;61985;51.070;14.064;2023-06-26T08:25:17;8.88;;;4.70;;
73684;SDS011;61985;51.070;14.064;2023-06-26T08:27:42;7.93;;;4.40;;
73684;SDS011;61985;51.070;14.064;2023-06-26T08:30:08;6.88;;;4.28;;
73684;SDS011;61985;51.070;14.064;2023-06-26T08:32:34;6.03;;;3.92;;
73684;SDS011;61985;51.070;14.064;2023-06-26T08:34:59;6.32;;;4.45;;
73684;SDS011;61985;51.070;14.064;2023-06-26T08:37:25;7.28;;;4.10;;
73684;SDS011;61985;51.070;14.064;2023-06-26T08:39:50;6.50;;;4.05;;
73684;SDS011;61985;51.070;14.064;2023-06-26T08:42:16;6.78;;;4.68;;
73684;SDS011;61985;51.070;14.064;2023-06-26T08:44:43;6.50;;;4.07;;
73684;SDS011;61985;51.070;14.064;2023-06-26T08:47:09;7.25;;;4.40;;
73684;SDS011;61985;51.070;14.064;2023-06-26T08:49:43;10.82;;;4.25;;
73684;SDS011;61985;51.070;14.064;2023-06-26T08:52:30;7.55;;;4.20;;
73684;SDS011;61985;51.070;14.064;2023-06-26T08:54:59;9.07;;;4.60;;
73684;SDS011;61985;51.070;14.064;2023-06-26T08:57:31;7.63;;;4.10;;
73684;SDS011;61985;51.070;14.064;2023-06-26T08:59:57;5.82;;;4.13;;
73684;SDS011;61985;51.070;14.064;2023-06-26T09:02:24;6.90;;;4.50;;
73684;SDS011;61985;51.070;14.064;2023-06-26T09:05:03;8.32;;;4.35;;
73684;SDS011;61985;51.070;14.064;2023-06-26T09:07:37;7.07;;;4.70;;
73684;SDS011;61985;51.070;14.064;2023-06-26T09:10:02;12.25;;;9.20;;
73684;SDS011;61985;51.070;14.064;2023-06-26T09:20:16;7.03;;;4.88;;
73684;SDS011;61985;51.070;14.064;2023-06-26T09:22:47;6.82;;;4.50;;
73684;SDS011;61985;51.070;14.064;2023-06-26T09:25:16;6.80;;;4.60;;
73684;SDS011;61985;51.070;14.064;2023-06-26T09:27:54;6.72;;;4.40;;
73684;SDS011;61985;51.070;14.064;2023-06-26T09:30:21;8.13;;;4.80;;
73684;SDS011;61985;51.070;14.064;2023-06-26T09:32:47;7.15;;;4.70;;
73684;SDS011;61985;51.070;14.064;2023-06-26T09:35:12;6.72;;;4.20;;
73684;SDS011;61985;51.070;14.064;2023-06-26T09:37:38;7.47;;;4.55;;
73684;SDS011;61985;51.070;14.064;2023-06-26T09:40:05;7.93;;;4.45;;
73684;SDS011;61985;51.070;14.064;2023-06-26T09:42:31;7.80;;;4.70;;
73684;SDS011;61985;51.070;14.064;2023-06-26T09:44:57;9.27;;;5.05;;
73684;SDS011;61985;51.070;14.064;2023-06-26T09:47:23;6.55;;;4.65;;
73684;SDS011;61985;51.070;14.064;2023-06-26T09:49:49;6.85;;;4.25;;
73684;SDS011;61985;51.070;14.064;2023-06-26T09:52:17;7.28;;;4.72;;
73684;SDS011;61985;51.070;14.064;2023-06-26T09:54:44;9.90;;;4.30;;
73684;SDS011;61985;51.070;14.064;2023-06-26T09:57:15;7.78;;;4.40;;
73684;SDS011;61985;51.070;14.064;2023-06-26T09:59:44;7.47;;;4.88;;
73684;SDS011;61985;51.070;14.064;2023-06-26T10:02:10;6.70;;;4.65;;
73684;SDS011;61985;51.070;14.064;2023-06-26T10:04:36;6.97;;;4.22;;
73684;SDS011;61985;51.070;14.064;2023-06-26T10:07:04;6.30;;;4.57;;
73684;SDS011;61985;51.070;14.064;2023-06-26T10:09:31;8.52;;;4.35;;
73684;SDS011;61985;51.070;14.064;2023-06-26T10:11:58;9.88;;;4.80;;
73684;SDS011;61985;51.070;14.064;2023-06-26T10:17:10;8.77;;;4.57;;
73684;SDS011;61985;51.070;14.064;2023-06-26T10:22:17;7.00;;;4.90;;
73684;SDS011;61985;51.070;14.064;2023-06-26T10:24:45;7.38;;;4.63;;
73684;SDS011;61985;51.070;14.064;2023-06-26T10:27:21;6.47;;;4.25;;
73684;SDS011;61985;51.070;14.064;2023-06-26T10:29:51;5.97;;;4.03;;
73684;SDS011;61985;51.070;14.064;2023-06-26T10:32:20;6.78;;;4.57;;
73684;SDS011;61985;51.070;14.064;2023-06-26T10:34:48;7.50;;;4.97;;
73684;SDS011;61985;51.070;14.064;2023-06-26T10:37:14;8.77;;;4.80;;
73684;SDS011;61985;51.070;14.064;2023-06-26T10:39:50;6.60;;;4.72;;
73684;SDS011;61985;51.070;14.064;2023-06-26T10:42:19;9.55;;;5.18;;
73684;SDS011;61985;51.070;14.064;2023-06-26T10:44:59;6.97;;;4.95;;
73684;SDS011;61985;51.070;14.064;2023-06-26T10:47:37;7.38;;;4.82;;
73684;SDS011;61985;51.070;14.064;2023-06-26T10:55:47;6.00;;;4.53;;
73684;SDS011;61985;51.070;14.064;2023-06-26T11:01:14;6.40;;;4.60;;
73684;SDS011;61985;51.070;14.064;2023-06-26T11:03:44;8.50;;;4.85;;
73684;SDS011;61985;51.070;14.064;2023-06-26T11:06:17;7.00;;;4.68;;
73684;SDS011;61985;51.070;14.064;2023-06-26T11:08:48;8.20;;;4.80;;
73684;SDS011;61985;51.070;14.064;2023-06-26T11:11:21;7.63;;;4.63;;
73684;SDS011;61985;51.070;14.064;2023-06-26T11:13:47;7.07;;;4.57;;
73684;SDS011;61985;51.070;14.064;2023-06-26T11:16:13;7.50;;;4.90;;
73684;SDS011;61985;51.070;14.064;2023-06-26T11:18:39;6.63;;;4.80;;
73684;SDS011;61985;51.070;14.064;2023-06-26T11:21:06;10.80;;;5.35;;
73684;SDS011;61985;51.070;14.064;2023-06-26T11:26:17;7.30;;;4.75;;
73684;SDS011;61985;51.070;14.064;2023-06-26T11:28:55;6.13;;;4.47;;
73684;SDS011;61985;51.070;14.064;2023-06-26T11:33:50;6.75;;;4.55;;
73684;SDS011;61985;51.070;14.064;2023-06-26T11:36:15;6.85;;;4.40;;
73684;SDS011;61985;51.070;14.064;2023-06-26T11:38:41;6.50;;;3.88;;
73684;SDS011;61985;51.070;14.064;2023-06-26T11:41:06;5.45;;;4.13;;
73684;SDS011;61985;51.070;14.064;2023-06-26T11:43:33;5.97;;;4.10;;
73684;SDS011;61985;51.070;14.064;2023-06-26T11:45:59;6.57;;;4.53;;
73684;SDS011;61985;51.070;14.064;2023-06-26T11:48:25;10.15;;;4.32;;
73684;SDS011;61985;51.070;14.064;2023-06-26T11:50:54;6.45;;;4.32;;
73684;SDS011;61985;51.070;14.064;2023-06-26T11:53:22;7.35;;;3.97;;
73684;SDS011;61985;51.070;14.064;2023-06-26T11:55:50;6.22;;;4.15;;
73684;SDS011;61985;51.070;14.064;2023-06-26T12:01:44;6.97;;;4.30;;
73684;SDS011;61985;51.070;14.064;2023-06-26T12:04:12;5.95;;;4.03;;
73684;SDS011;61985;51.070;14.064;2023-06-26T12:06:47;6.45;;;4.25;;
73684;SDS011;61985;51.070;14.064;2023-06-26T12:09:17;5.77;;;3.80;;
73684;SDS011;61985;51.070;14.064;2023-06-26T12:11:46;7.05;;;4.28;;
73684;SDS011;61985;51.070;14.064;2023-06-26T12:14:13;5.13;;;3.75;;
73684;SDS011;61985;51.070;14.064;2023-06-26T12:16:41;7.05;;;3.97;;
73684;SDS011;61985;51.070;14.064;2023-06-26T12:19:07;5.68;;;4.10;;
73684;SDS011;61985;51.070;14.064;2023-06-26T12:26:49;5.90;;;4.30;;
73684;SDS011;61985;51.070;14.064;2023-06-26T12:30:07;6.70;;;4.20;;
73684;SDS011;61985;51.070;14.064;2023-06-26T12:35:48;6.00;;;4.07;;
73684;SDS011;61985;51.070;14.064;2023-06-26T12:38:22;6.85;;;4.43;;
73684;SDS011;61985;51.070;14.064;2023-06-26T12:42:01;6.18;;;4.25;;
73684;SDS011;61985;51.070;14.064;2023-06-26T12:44:52;5.75;;;4.07;;
73684;SDS011;61985;51.070;14.064;2023-06-26T12:47:26;9.38;;;4.25;;
73684;SDS011;61985;51.070;14.064;2023-06-26T12:49:53;6.53;;;4.65;;
73684;SDS011;61985;51.070;14.064;2023-06-26T12:52:19;6.05;;;4.20;;
73684;SDS011;61985;51.070;14.064;2023-06-26T12:57:25;8.82;;;4.68;;
73684;SDS011;61985;51.070;14.064;2023-06-26T12:59:52;7.88;;;4.20;;
73684;SDS011;61985;51.070;14.064;2023-06-26T13:02:21;6.20;;;4.40;;
73684;SDS011;61985;51.070;14.064;2023-06-26T13:04:47;9.35;;;4.32;;
73684;SDS011;61985;51.070;14.064;2023-06-26T13:07:12;6.82;;;4.10;;
73684;SDS011;61985;51.070;14.064;2023-06-26T13:09:38;6.20;;;4.00;;
73684;SDS011;61985;51.070;14.064;2023-06-26T13:12:06;8.38;;;4.13;;
73684;SDS011;61985;51.070;14.064;2023-06-26T13:14:32;6.18;;;4.57;;
73684;SDS011;61985;51.070;14.064;2023-06-26T13:16:58;6.70;;;4.43;;
73684;SDS011;61985;51.070;14.064;2023-06-26T13:19:23;5.47;;;4.07;;
73684;SDS011;61985;51.070;14.064;2023-06-26T13:21:49;6.60;;;4.10;;
73684;SDS011;61985;51.070;14.064;2023-06-26T13:24:14;9.07;;;4.50;;
73684;SDS011;61985;51.070;14.064;2023-06-26T13:26:40;7.35;;;4.10;;
73684;SDS011;61985;51.070;14.064;2023-06-26T13:29:06;7.95;;;4.30;;
73684;SDS011;61985;51.070;14.064;2023-06-26T13:31:32;7.25;;;4.20;;
73684;SDS011;61985;51.070;14.064;2023-06-26T13:33:57;8.77;;;4.15;;
73684;SDS011;61985;51.070;14.064;2023-06-26T13:36:23;6.97;;;4.40;;
73684;SDS011;61985;51.070;14.064;2023-06-26T13:38:49;6.53;;;4.68;;
73684;SDS011;61985;51.070;14.064;2023-06-26T13:41:20;6.30;;;4.32;;
73684;SDS011;61985;51.070;14.064;2023-06-26T13:43:49;8.32;;;5.57;;
73684;SDS011;61985;51.070;14.064;2023-06-26T13:46:15;5.55;;;4.18;;
73684;SDS011;61985;51.070;14.064;2023-06-26T13:48:40;6.38;;;4.43;;
73684;SDS011;61985;51.070;14.064;2023-06-26T13:51:06;5.88;;;4.00;;
73684;SDS011;61985;51.070;14.064;2023-06-26T13:53:31;7.05;;;4.35;;
73684;SDS011;61985;51.070;14.064;2023-06-26T13:55:56;7.40;;;5.03;;
73684;SDS011;61985;51.070;14.064;2023-06-26T13:58:22;6.50;;;4.10;;
73684;SDS011;61985;51.070;14.064;2023-06-26T14:00:51;8.73;;;4.55;;
73684;SDS011;61985;51.070;14.064;2023-06-26T14:03:17;7.35;;;4.38;;
73684;SDS011;61985;51.070;14.064;2023-06-26T14:05:42;5.93;;;4.57;;
73684;SDS011;61985;51.070;14.064;2023-06-26T14:08:08;6.57;;;4.78;;
73684;SDS011;61985;51.070;14.064;2023-06-26T14:10:34;6.30;;;4.60;;
73684;SDS011;61985;51.070;14.064;2023-06-26T14:13:00;5.43;;;4.20;;
73684;SDS011;61985;51.070;14.064;2023-06-26T14:15:26;8.02;;;4.47;;
73684;SDS011;61985;51.070;14.064;2023-06-26T14:17:51;6.38;;;4.40;;
73684;SDS011;61985;51.070;14.064;2023-06-26T14:20:17;6.28;;;4.20;;
73684;SDS011;61985;51.070;14.064;2023-06-26T14:22:46;6.80;;;4.78;;
73684;SDS011;61985;51.070;14.064;2023-06-26T14:25:11;6.93;;;4.60;;
73684;SDS011;61985;51.070;14.064;2023-06-26T14:27:38;5.70;;;4.38;;
73684;SDS011;61985;51.070;14.064;2023-06-26T14:30:04;8.50;;;5.15;;
73684;SDS011;61985;51.070;14.064;2023-06-26T14:32:30;8.52;;;4.70;;
73684;SDS011;61985;51.070;14.064;2023-06-26T14:34:56;7.05;;;4.63;;
73684;SDS011;61985;51.070;14.064;2023-06-26T14:37:22;7.80;;;4.75;;
73684;SDS011;61985;51.070;14.064;2023-06-26T14:39:47;7.88;;;4.72;;
73684;SDS011;61985;51.070;14.064;2023-06-26T14:42:12;5.57;;;4.32;;
73684;SDS011;61985;51.070;14.064;2023-06-26T14:44:38;5.85;;;4.53;;
73684;SDS011;61985;51.070;14.064;2023-06-26T14:47:03;7.63;;;4.43;;
73684;SDS011;61985;51.070;14.064;2023-06-26T14:49:29;8.07;;;4.75;;
73684;SDS011;61985;51.070;14.064;2023-06-26T14:51:55;9.65;;;4.80;;
73684;SDS011;61985;51.070;14.064;2023-06-26T14:54:20;8.02;;;4.63;;
73684;SDS011;61985;51.070;14.064;2023-06-26T14:56:45;9.20;;;5.00;;
73684;SDS011;61985;51.070;14.064;2023-06-26T14:59:11;8.27;;;4.50;;
73684;SDS011;61985;51.070;14.064;2023-06-26T15:01:37;6.28;;;4.20;;
73684;SDS011;61985;51.070;14.064;2023-06-26T15:04:03;7.57;;;4.60;;
73684;SDS011;61985;51.070;14.064;2023-06-26T15:06:29;6.25;;;4.35;;
73684;SDS011;61985;51.070;14.064;2023-06-26T15:08:55;7.50;;;4.40;;
73684;SDS011;61985;51.070;14.064;2023-06-26T15:11:20;7.95;;;4.15;;
73684;SDS011;61985;51.070;14.064;2023-06-26T15:13:45;6.78;;;4.32;;
73684;SDS011;61985;51.070;14.064;2023-06-26T15:16:11;7.03;;;4.65;;
73684;SDS011;61985;51.070;14.064;2023-06-26T15:18:36;7.00;;;4.60;;